MSC Clea — CQID6 — position and weather

sailwx.info

Track history (hours):
 
Tides and Currents Weather Stations Pressure Air Temp Water Temp Dewpoint Dewpoint Depression Visibility Wind Speed Wind Dir Waves Ship Positions

MSC Clea

Last reported at 2017-Dec-12 12:56 UTC. Time now 2017-Dec-16 01:37 UTC.
Position N 31°50' W 117°20'.

Length 300 m; draft 10.3 m.

Type: Cargo ship. MMSI: 255805930.

Date/timePositionNaut miles runAvg speedWind from/ knotsBaromVisibWave heightAir tempDewpointWater temp
2017-Dec-12 12:56N 31°50' W 117°20'716.2
2017-Dec-12 12:29N 31°57' W 117°23'816.3
2017-Dec-12 12:00N 32°04' W 117°25'816.7
2017-Dec-12 11:30N 32°12' W 117°28'816.7
2017-Dec-12 11:00N 32°20' W 117°31'815.5
2017-Dec-12 10:30N 32°28' W 117°34'611.6
2017-Dec-12 10:00N 32°33' W 117°37'611.9
2017-Dec-12 09:30N 32°38' W 117°39'917.2
2017-Dec-12 09:00N 32°47' W 117°40'917.3
2017-Dec-12 08:30N 32°56' W 117°41'815.4
2017-Dec-12 08:00N 33°01' W 117°47'816.9
2017-Dec-12 07:30N 33°05' W 117°56'611.4
2017-Dec-12 07:00N 33°10' W 118°00'611.5
2017-Dec-12 06:31N 33°15' W 118°03'611.6
2017-Dec-12 06:01N 33°20' W 118°07'611.6
2017-Dec-12 05:30N 33°25' W 118°09'611.6
2017-Dec-12 05:00N 33°31' W 118°11'611.4
2017-Dec-12 04:30N 33°36' W 118°13'710.5
2017-Dec-12 03:50N 33°43' W 118°11'3 0.4
2017-Dec-11 19:16N 33°45' W 118°14'0 0.0
2017-Dec-11 18:58N 33°45' W 118°14'0 0.0
2017-Dec-11 18:28N 33°45' W 118°14'0 0.0
2017-Dec-11 17:58N 33°45' W 118°14'0 0.0
2017-Dec-11 17:22N 33°45' W 118°14'0 0.0
2017-Dec-11 16:58N 33°45' W 118°14'0 0.0
2017-Dec-11 16:28N 33°45' W 118°14'0 0.0
2017-Dec-11 15:52N 33°45' W 118°14'0 0.0
2017-Dec-11 15:22N 33°45' W 118°14'0 0.0
2017-Dec-11 14:16N 33°45' W 118°14'7 4.3
2017-Dec-11 12:43N 33°39' W 118°11'3 9.0
2017-Dec-11 12:21N 33°36' W 118°13'410.0
2017-Dec-11 12:00N 33°36' W 118°17'5 9.3
2017-Dec-11 11:30N 33°37' W 118°23'510.0
2017-Dec-11 11:00N 33°39' W 118°28'510.1
2017-Dec-11 10:30N 33°42' W 118°33'510.1
2017-Dec-11 10:00N 33°44' W 118°38'510.0
2017-Dec-11 09:30N 33°47' W 118°43'510.2
2017-Dec-11 09:00N 33°49' W 118°49'510.3
2017-Dec-11 08:30N 33°52' W 118°54'510.4
2017-Dec-11 08:00N 33°55' W 118°60'510.5
2017-Dec-11 07:29N 33°57' W 119°05'510.6
2017-Dec-11 07:00N 33°60' W 119°11'510.4
2017-Dec-11 06:29N 34°02' W 119°16'510.1
2017-Dec-11 06:00N 34°04' W 119°22'510.3
2017-Dec-11 05:29N 34°05' W 119°28'510.0
2017-Dec-11 04:59N 34°07' W 119°34'510.2
2017-Dec-11 04:27N 34°08' W 119°40'510.0
2017-Dec-11 03:55N 34°10' W 119°47'510.3
2017-Dec-11 03:28N 34°11' W 119°52'610.6
2017-Dec-11 02:53N 34°12' W 119°59'410.6
2017-Dec-11 02:28N 34°13' W 120°04'510.4
2017-Dec-11 01:59N 34°15' W 120°10'510.7
2017-Dec-11 01:29N 34°16' W 120°17'510.4
2017-Dec-11 01:00N 34°17' W 120°22'510.3
2017-Dec-11 00:30N 34°19' W 120°28'510.5
2017-Dec-11 00:00N 34°20' W 120°34'610.5
2017-Dec-10 23:26N 34°22' W 120°41'510.5
2017-Dec-10 23:00N 34°23' W 120°47'610.3
2017-Dec-10 22:25N 34°25' W 120°54'4 9.7
2017-Dec-10 21:59N 34°28' W 120°57'510.4
2017-Dec-10 21:30N 34°32' W 121°01'5 9.6
2017-Dec-10 21:00N 34°36' W 121°04'612.7
2017-Dec-10 20:30N 34°41' W 121°08'612.8
2017-Dec-10 20:00N 34°47' W 121°12'713.8
2017-Dec-10 19:30N 34°53' W 121°16'1019.5
2017-Dec-10 19:00N 35°01' W 121°22'714.1
2017-Dec-10 18:30N 35°07' W 121°27'612.1
2017-Dec-10 18:00N 35°12' W 121°31'611.6
2017-Dec-10 17:30N 35°17' W 121°35'611.7
2017-Dec-10 17:00N 35°21' W 121°39'611.9
2017-Dec-10 16:30N 35°26' W 121°44'612.2
2017-Dec-10 16:00N 35°31' W 121°48'612.2
2017-Dec-10 15:30N 35°37' W 121°51'612.1
2017-Dec-10 15:00N 35°42' W 121°55'612.2
2017-Dec-10 14:30N 35°47' W 121°58'612.3
2017-Dec-10 14:00N 35°53' W 122°02'612.3
2017-Dec-10 13:30N 35°58' W 122°06'612.4
2017-Dec-10 13:00N 36°03' W 122°10'612.2
2017-Dec-10 12:30N 36°08' W 122°14'612.5
2017-Dec-10 12:00N 36°13' W 122°19'612.2
2017-Dec-10 11:30N 36°19' W 122°23'611.7
2017-Dec-10 11:00N 36°24' W 122°26'612.0
2017-Dec-10 10:30N 36°29' W 122°30'611.9
2017-Dec-10 10:00N 36°34' W 122°35'612.0
2017-Dec-10 09:30N 36°39' W 122°38'611.8
2017-Dec-10 09:00N 36°45' W 122°40'612.7
2017-Dec-10 08:30N 36°51' W 122°41'612.9
2017-Dec-10 08:00N 36°57' W 122°41'612.4
2017-Dec-10 07:30N 37°03' W 122°42'612.5
2017-Dec-10 07:00N 37°10' W 122°43'612.4
2017-Dec-10 06:30N 37°16' W 122°43'510.4
2017-Dec-10 06:00N 37°21' W 122°44'5 9.3
2017-Dec-10 05:30N 37°26' W 122°44'5 9.3
2017-Dec-10 05:00N 37°30' W 122°44'5 9.6
2017-Dec-10 04:30N 37°35' W 122°44'5 9.1
2017-Dec-10 04:00N 37°40' W 122°44'5 9.4
2017-Dec-10 03:30N 37°44' W 122°41'612.7
2017-Dec-10 03:00N 37°47' W 122°34'816.8
2017-Dec-10 02:31N 37°50' W 122°24'510.3
2017-Dec-10 02:00N 37°48' W 122°19'1 1.6
2017-Dec-10 01:31N 37°48' W 122°18'1 2.3
2017-Dec-10 01:00N 37°48' W 122°19'0 0.0
2017-Dec-10 00:30N 37°48' W 122°19'0 0.0
2017-Dec-10 00:00N 37°48' W 122°19'0 0.0
2017-Dec-09 23:30N 37°48' W 122°19'0 0.0
2017-Dec-09 23:00N 37°48' W 122°19'0 0.0
2017-Dec-09 22:30N 37°48' W 122°19'0 0.0
2017-Dec-09 22:00N 37°48' W 122°19'0 0.0
2017-Dec-09 21:30N 37°48' W 122°19'0 0.0
2017-Dec-09 21:00N 37°48' W 122°19'0 0.0
2017-Dec-09 20:30N 37°48' W 122°19'0 0.0
2017-Dec-09 20:00N 37°48' W 122°19'0 0.0
2017-Dec-09 19:30N 37°48' W 122°19'0 0.0
2017-Dec-09 19:00N 37°48' W 122°19'0 0.0
2017-Dec-09 18:30N 37°48' W 122°19'0 0.0
2017-Dec-09 18:00N 37°48' W 122°19'0 0.0
2017-Dec-09 17:30N 37°48' W 122°19'0 0.0
2017-Dec-09 17:00N 37°48' W 122°19'0 0.0
2017-Dec-09 16:30N 37°48' W 122°19'0 0.0
2017-Dec-09 16:00N 37°48' W 122°19'0 0.0
2017-Dec-09 15:30N 37°48' W 122°19'1 1.4
2017-Dec-09 15:00N 37°48' W 122°20'4 9.0
2017-Dec-09 14:30N 37°49' W 122°25'5 9.9
2017-Dec-09 14:01N 37°48' W 122°32'815.1
2017-Dec-09 13:30N 37°46' W 122°41'5 9.1
2017-Dec-09 13:00N 37°47' W 122°47'4 9.0
2017-Dec-09 12:30N 37°49' W 122°52'5 9.3
2017-Dec-09 12:00N 37°51' W 122°57'5 9.6
2017-Dec-09 11:30N 37°53' W 123°02'5 9.4
2017-Dec-09 11:00N 37°56' W 123°07'5 9.4
2017-Dec-09 10:30N 37°59' W 123°12'5 9.5
2017-Dec-09 10:00N 38°02' W 123°16'5 9.5
2017-Dec-09 09:30N 38°06' W 123°20'5 9.6
2017-Dec-09 09:00N 38°10' W 123°23'5 9.6
2017-Dec-09 08:30N 38°14' W 123°26'5 9.5
2017-Dec-09 08:00N 38°18' W 123°29'5 9.5
2017-Dec-09 07:30N 38°22' W 123°32'5 9.8
2017-Dec-09 07:00N 38°27' W 123°35'5 9.9
2017-Dec-09 06:30N 38°31' W 123°38'5 9.7
2017-Dec-09 06:00N 38°35' W 123°41'5 9.7
2017-Dec-09 05:30N 38°39' W 123°44'5 9.7
2017-Dec-09 05:00N 38°44' W 123°47'5 9.7
2017-Dec-09 04:30N 38°48' W 123°50'27413.2
2017-Dec-08 07:44N 43°17' W 124°57'314.4
2017-Dec-08 07:30N 43°20' W 124°57'714.1
2017-Dec-08 07:00N 43°27' W 124°58'714.0
2017-Dec-08 06:31N 43°34' W 124°59'713.9
2017-Dec-08 06:00N 43°41' W 124°59'714.2
2017-Dec-08 05:30N 43°48' W 124°60'714.5
2017-Dec-08 05:00N 43°55' W 125°00'714.5
2017-Dec-08 04:30N 44°03' W 125°01'714.2
2017-Dec-08 04:00N 44°10' W 125°01'815.4
2017-Dec-08 03:29N 44°18' W 125°02'715.3
2017-Dec-08 03:00N 44°25' W 125°02'815.5
2017-Dec-08 02:30N 44°33' W 125°03'815.4
2017-Dec-08 02:00N 44°40' W 125°04'815.4
2017-Dec-08 01:30N 44°48' W 125°05'815.2
2017-Dec-08 01:00N 44°56' W 125°06'714.7
2017-Dec-08 00:30N 45°03' W 125°07'815.2
2017-Dec-08 00:00N 45°10' W 125°06'815.3
2017-Dec-07 23:31N 45°18' W 125°06'815.1
2017-Dec-07 23:00N 45°26' W 125°07'815.2
2017-Dec-07 22:30N 45°33' W 125°07'815.2
2017-Dec-07 22:00N 45°41' W 125°08'815.3
2017-Dec-07 21:30N 45°48' W 125°08'715.0
2017-Dec-07 21:00N 45°56' W 125°09'815.1
2017-Dec-07 20:31N 46°03' W 125°09'815.1
2017-Dec-07 20:00N 46°11' W 125°10'815.3
2017-Dec-07 19:31N 46°19' W 125°11'815.2
2017-Dec-07 19:00N 46°26' W 125°11'815.1
2017-Dec-07 18:31N 46°34' W 125°12'815.2
2017-Dec-07 18:01N 46°41' W 125°12'1314.1
2017-Dec-07 17:06N 46°54' W 125°13'113.5
2017-Dec-07 17:00N 46°55' W 125°13'713.4
2017-Dec-07 16:30N 47°02' W 125°14'713.1
2017-Dec-07 16:00N 47°09' W 125°15'612.9
2017-Dec-07 15:30N 47°15' W 125°15'713.2
2017-Dec-07 15:00N 47°22' W 125°16'713.7
2017-Dec-07 14:30N 47°29' W 125°16'714.7
2017-Dec-07 14:00N 47°36' W 125°17'914.7
2017-Dec-07 13:24N 47°45' W 125°17'614.3
2017-Dec-07 13:00N 47°50' W 125°18'713.8
2017-Dec-07 12:30N 47°57' W 125°17'814.3
2017-Dec-07 11:58N 48°05' W 125°14'714.2
2017-Dec-07 11:30N 48°11' W 125°12'713.6
2017-Dec-07 11:00N 48°18' W 125°10'713.5
2017-Dec-07 10:30N 48°24' W 125°08'714.6
2017-Dec-07 10:00N 48°30' W 125°02'714.8
2017-Dec-07 09:31N 48°31' W 124°51'815.8
2017-Dec-07 09:01N 48°29' W 124°39'816.4
2017-Dec-07 08:31N 48°26' W 124°28'816.6
2017-Dec-07 08:00N 48°23' W 124°16'816.7
2017-Dec-07 07:31N 48°20' W 124°05'816.8
2017-Dec-07 07:01N 48°17' W 123°53'918.9
2017-Dec-07 06:31N 48°16' W 123°39'917.1
2017-Dec-07 06:01N 48°13' W 123°27'611.9
2017-Dec-07 05:31N 48°09' W 123°20'1121.0
2017-Dec-07 05:01N 48°13' W 123°05'1121.6
2017-Dec-07 04:31N 48°12' W 122°49'1120.7
2017-Dec-07 03:58N 48°03' W 122°38'1020.5
2017-Dec-07 03:30N 47°56' W 122°29'1019.8
2017-Dec-07 03:01N 47°46' W 122°26'917.3
2017-Dec-07 02:31N 47°37' W 122°27'5 9.7
2017-Dec-07 02:00N 47°36' W 122°21'0 0.1
2017-Dec-07 01:30N 47°36' W 122°21'0 0.0
2017-Dec-07 00:59N 47°36' W 122°21'0 0.0
2017-Dec-07 00:29N 47°36' W 122°21'0 0.0
2017-Dec-06 23:59N 47°36' W 122°21'0 0.0
2017-Dec-06 23:30N 47°36' W 122°21'0 0.0
2017-Dec-06 22:59N 47°36' W 122°21'0 0.0
2017-Dec-06 22:30N 47°36' W 122°21'0 0.0
2017-Dec-06 22:00N 47°36' W 122°21'0 0.0
2017-Dec-06 21:30N 47°36' W 122°21'0 0.0
2017-Dec-06 20:59N 47°36' W 122°21'  
2017-Dec-04 10:23N 49°01' W 123°09'0 0.0
2017-Dec-04 09:59N 49°01' W 123°09'0 0.0
2017-Dec-04 09:29N 49°01' W 123°09'0 0.0
2017-Dec-04 08:59N 49°01' W 123°09'0 0.0
2017-Dec-04 08:29N 49°01' W 123°09'0 0.0
2017-Dec-04 07:59N 49°01' W 123°09'0 0.0
2017-Dec-04 07:29N 49°01' W 123°09'0 0.0
2017-Dec-04 07:00N 49°01' W 123°09'0 0.8
2017-Dec-04 06:30N 49°01' W 123°09'3 6.3
2017-Dec-04 06:01N 48°58' W 123°10'714.6
2017-Dec-04 05:30N 48°52' W 123°03'713.5
2017-Dec-04 05:00N 48°45' W 123°04'816.5
2017-Dec-04 04:30N 48°42' W 123°15'816.1
2017-Dec-04 04:00N 48°34' W 123°12'816.3
2017-Dec-04 03:30N 48°26' W 123°10'815.7
2017-Dec-04 03:00N 48°22' W 123°20'611.9
2017-Dec-04 02:31N 48°17' W 123°26'713.1
2017-Dec-04 02:00N 48°13' W 123°34'613.1
2017-Dec-04 01:30N 48°13' W 123°43'713.7
2017-Dec-04 01:00N 48°13' W 123°54'713.5
2017-Dec-04 00:30N 48°16' W 124°03'714.2
2017-Dec-04 00:00N 48°19' W 124°13'714.5
2017-Dec-03 23:30N 48°22' W 124°23'816.1
2017-Dec-03 23:00N 48°25' W 124°34'917.1
2017-Dec-03 22:31N 48°29' W 124°46'816.9
2017-Dec-03 22:00N 48°28' W 124°58'714.6
2017-Dec-03 21:30N 48°22' W 125°05'816.9
2017-Dec-03 21:01N 48°14' W 125°08'816.7
2017-Dec-03 20:30N 48°06' W 125°11'1116.7
2017-Dec-03 19:51N 47°56' W 125°16'6117.4
2017-Dec-03 16:19N 46°54' W 125°14'517.9
2017-Dec-03 16:00N 46°49' W 125°13'917.8
2017-Dec-03 15:30N 46°40' W 125°13'917.5
2017-Dec-03 15:01N 46°31' W 125°12'917.3
2017-Dec-03 14:30N 46°22' W 125°11'917.4
2017-Dec-03 14:01N 46°14' W 125°10'917.3
2017-Dec-03 13:31N 46°05' W 125°10'917.4
2017-Dec-03 13:00N 45°56' W 125°09'917.5
2017-Dec-03 12:31N 45°48' W 125°09'917.6
2017-Dec-03 12:01N 45°39' W 125°08'918.1
2017-Dec-03 11:31N 45°30' W 125°07'918.2
2017-Dec-03 11:01N 45°21' W 125°07'918.7
2017-Dec-03 10:30N 45°11' W 125°06'  
Track history (hours):
 
Tides and Currents Weather Stations Pressure Air Temp Water Temp Dewpoint Dewpoint Depression Visibility Wind Speed Wind Dir Waves Ship Positions

MSC Clea

Last reported at 2017-Dec-12 12:56 UTC. Time now 2017-Dec-16 01:37 UTC.
Position N 31°50' W 117°20'.

Length 300 m; draft 10.3 m.

Type: Cargo ship. MMSI: 255805930.

Date/timePositionNaut miles runAvg speedWind from/ knotsBaromVisibWave heightAir tempDewpointWater temp
2017-Dec-12 12:56N 31°50' W 117°20'716.2
2017-Dec-12 12:29N 31°57' W 117°23'816.3
2017-Dec-12 12:00N 32°04' W 117°25'816.7
2017-Dec-12 11:30N 32°12' W 117°28'816.7
2017-Dec-12 11:00N 32°20' W 117°31'815.5
2017-Dec-12 10:30N 32°28' W 117°34'611.6
2017-Dec-12 10:00N 32°33' W 117°37'611.9
2017-Dec-12 09:30N 32°38' W 117°39'917.2
2017-Dec-12 09:00N 32°47' W 117°40'917.3
2017-Dec-12 08:30N 32°56' W 117°41'815.4
2017-Dec-12 08:00N 33°01' W 117°47'816.9
2017-Dec-12 07:30N 33°05' W 117°56'611.4
2017-Dec-12 07:00N 33°10' W 118°00'611.5
2017-Dec-12 06:31N 33°15' W 118°03'611.6
2017-Dec-12 06:01N 33°20' W 118°07'611.6
2017-Dec-12 05:30N 33°25' W 118°09'611.6
2017-Dec-12 05:00N 33°31' W 118°11'611.4
2017-Dec-12 04:30N 33°36' W 118°13'710.5
2017-Dec-12 03:50N 33°43' W 118°11'3 0.4
2017-Dec-11 19:16N 33°45' W 118°14'0 0.0
2017-Dec-11 18:58N 33°45' W 118°14'0 0.0
2017-Dec-11 18:28N 33°45' W 118°14'0 0.0
2017-Dec-11 17:58N 33°45' W 118°14'0 0.0
2017-Dec-11 17:22N 33°45' W 118°14'0 0.0
2017-Dec-11 16:58N 33°45' W 118°14'0 0.0
2017-Dec-11 16:28N 33°45' W 118°14'0 0.0
2017-Dec-11 15:52N 33°45' W 118°14'0 0.0
2017-Dec-11 15:22N 33°45' W 118°14'0 0.0
2017-Dec-11 14:16N 33°45' W 118°14'7 4.3
2017-Dec-11 12:43N 33°39' W 118°11'3 9.0
2017-Dec-11 12:21N 33°36' W 118°13'410.0
2017-Dec-11 12:00N 33°36' W 118°17'5 9.3
2017-Dec-11 11:30N 33°37' W 118°23'510.0
2017-Dec-11 11:00N 33°39' W 118°28'510.1
2017-Dec-11 10:30N 33°42' W 118°33'510.1
2017-Dec-11 10:00N 33°44' W 118°38'510.0
2017-Dec-11 09:30N 33°47' W 118°43'510.2
2017-Dec-11 09:00N 33°49' W 118°49'510.3
2017-Dec-11 08:30N 33°52' W 118°54'510.4
2017-Dec-11 08:00N 33°55' W 118°60'510.5
2017-Dec-11 07:29N 33°57' W 119°05'510.6
2017-Dec-11 07:00N 33°60' W 119°11'510.4
2017-Dec-11 06:29N 34°02' W 119°16'510.1
2017-Dec-11 06:00N 34°04' W 119°22'510.3
2017-Dec-11 05:29N 34°05' W 119°28'510.0
2017-Dec-11 04:59N 34°07' W 119°34'510.2
2017-Dec-11 04:27N 34°08' W 119°40'510.0
2017-Dec-11 03:55N 34°10' W 119°47'510.3
2017-Dec-11 03:28N 34°11' W 119°52'610.6
2017-Dec-11 02:53N 34°12' W 119°59'410.6
2017-Dec-11 02:28N 34°13' W 120°04'510.4
2017-Dec-11 01:59N 34°15' W 120°10'510.7
2017-Dec-11 01:29N 34°16' W 120°17'510.4
2017-Dec-11 01:00N 34°17' W 120°22'510.3
2017-Dec-11 00:30N 34°19' W 120°28'510.5
2017-Dec-11 00:00N 34°20' W 120°34'610.5
2017-Dec-10 23:26N 34°22' W 120°41'510.5
2017-Dec-10 23:00N 34°23' W 120°47'610.3
2017-Dec-10 22:25N 34°25' W 120°54'4 9.7
2017-Dec-10 21:59N 34°28' W 120°57'510.4
2017-Dec-10 21:30N 34°32' W 121°01'5 9.6
2017-Dec-10 21:00N 34°36' W 121°04'612.7
2017-Dec-10 20:30N 34°41' W 121°08'612.8
2017-Dec-10 20:00N 34°47' W 121°12'713.8
2017-Dec-10 19:30N 34°53' W 121°16'1019.5
2017-Dec-10 19:00N 35°01' W 121°22'714.1
2017-Dec-10 18:30N 35°07' W 121°27'612.1
2017-Dec-10 18:00N 35°12' W 121°31'611.6
2017-Dec-10 17:30N 35°17' W 121°35'611.7
2017-Dec-10 17:00N 35°21' W 121°39'611.9
2017-Dec-10 16:30N 35°26' W 121°44'612.2
2017-Dec-10 16:00N 35°31' W 121°48'612.2
2017-Dec-10 15:30N 35°37' W 121°51'612.1
2017-Dec-10 15:00N 35°42' W 121°55'612.2
2017-Dec-10 14:30N 35°47' W 121°58'612.3
2017-Dec-10 14:00N 35°53' W 122°02'612.3
2017-Dec-10 13:30N 35°58' W 122°06'612.4
2017-Dec-10 13:00N 36°03' W 122°10'612.2
2017-Dec-10 12:30N 36°08' W 122°14'612.5
2017-Dec-10 12:00N 36°13' W 122°19'612.2
2017-Dec-10 11:30N 36°19' W 122°23'611.7
2017-Dec-10 11:00N 36°24' W 122°26'612.0
2017-Dec-10 10:30N 36°29' W 122°30'611.9
2017-Dec-10 10:00N 36°34' W 122°35'612.0
2017-Dec-10 09:30N 36°39' W 122°38'611.8
2017-Dec-10 09:00N 36°45' W 122°40'612.7
2017-Dec-10 08:30N 36°51' W 122°41'612.9
2017-Dec-10 08:00N 36°57' W 122°41'612.4
2017-Dec-10 07:30N 37°03' W 122°42'612.5
2017-Dec-10 07:00N 37°10' W 122°43'612.4
2017-Dec-10 06:30N 37°16' W 122°43'510.4
2017-Dec-10 06:00N 37°21' W 122°44'5 9.3
2017-Dec-10 05:30N 37°26' W 122°44'5 9.3
2017-Dec-10 05:00N 37°30' W 122°44'5 9.6
2017-Dec-10 04:30N 37°35' W 122°44'5 9.1
2017-Dec-10 04:00N 37°40' W 122°44'5 9.4
2017-Dec-10 03:30N 37°44' W 122°41'612.7
2017-Dec-10 03:00N 37°47' W 122°34'816.8
2017-Dec-10 02:31N 37°50' W 122°24'510.3
2017-Dec-10 02:00N 37°48' W 122°19'1 1.6
2017-Dec-10 01:31N 37°48' W 122°18'1 2.3
2017-Dec-10 01:00N 37°48' W 122°19'0 0.0
2017-Dec-10 00:30N 37°48' W 122°19'0 0.0
2017-Dec-10 00:00N 37°48' W 122°19'0 0.0
2017-Dec-09 23:30N 37°48' W 122°19'0 0.0
2017-Dec-09 23:00N 37°48' W 122°19'0 0.0
2017-Dec-09 22:30N 37°48' W 122°19'0 0.0
2017-Dec-09 22:00N 37°48' W 122°19'0 0.0
2017-Dec-09 21:30N 37°48' W 122°19'0 0.0
2017-Dec-09 21:00N 37°48' W 122°19'0 0.0
2017-Dec-09 20:30N 37°48' W 122°19'0 0.0
2017-Dec-09 20:00N 37°48' W 122°19'0 0.0
2017-Dec-09 19:30N 37°48' W 122°19'0 0.0
2017-Dec-09 19:00N 37°48' W 122°19'0 0.0
2017-Dec-09 18:30N 37°48' W 122°19'0 0.0
2017-Dec-09 18:00N 37°48' W 122°19'0 0.0
2017-Dec-09 17:30N 37°48' W 122°19'0 0.0
2017-Dec-09 17:00N 37°48' W 122°19'0 0.0
2017-Dec-09 16:30N 37°48' W 122°19'0 0.0
2017-Dec-09 16:00N 37°48' W 122°19'0 0.0
2017-Dec-09 15:30N 37°48' W 122°19'1 1.4
2017-Dec-09 15:00N 37°48' W 122°20'4 9.0
2017-Dec-09 14:30N 37°49' W 122°25'5 9.9
2017-Dec-09 14:01N 37°48' W 122°32'815.1
2017-Dec-09 13:30N 37°46' W 122°41'5 9.1
2017-Dec-09 13:00N 37°47' W 122°47'4 9.0
2017-Dec-09 12:30N 37°49' W 122°52'5 9.3
2017-Dec-09 12:00N 37°51' W 122°57'5 9.6
2017-Dec-09 11:30N 37°53' W 123°02'5 9.4
2017-Dec-09 11:00N 37°56' W 123°07'5 9.4
2017-Dec-09 10:30N 37°59' W 123°12'5 9.5
2017-Dec-09 10:00N 38°02' W 123°16'5 9.5
2017-Dec-09 09:30N 38°06' W 123°20'5 9.6
2017-Dec-09 09:00N 38°10' W 123°23'5 9.6
2017-Dec-09 08:30N 38°14' W 123°26'5 9.5
2017-Dec-09 08:00N 38°18' W 123°29'5 9.5
2017-Dec-09 07:30N 38°22' W 123°32'5 9.8
2017-Dec-09 07:00N 38°27' W 123°35'5 9.9
2017-Dec-09 06:30N 38°31' W 123°38'5 9.7
2017-Dec-09 06:00N 38°35' W 123°41'5 9.7
2017-Dec-09 05:30N 38°39' W 123°44'5 9.7
2017-Dec-09 05:00N 38°44' W 123°47'5 9.7
2017-Dec-09 04:30N 38°48' W 123°50'27413.2
2017-Dec-08 07:44N 43°17' W 124°57'314.4
2017-Dec-08 07:30N 43°20' W 124°57'714.1
2017-Dec-08 07:00N 43°27' W 124°58'714.0
2017-Dec-08 06:31N 43°34' W 124°59'713.9
2017-Dec-08 06:00N 43°41' W 124°59'714.2
2017-Dec-08 05:30N 43°48' W 124°60'714.5
2017-Dec-08 05:00N 43°55' W 125°00'714.5
2017-Dec-08 04:30N 44°03' W 125°01'714.2
2017-Dec-08 04:00N 44°10' W 125°01'815.4
2017-Dec-08 03:29N 44°18' W 125°02'715.3
2017-Dec-08 03:00N 44°25' W 125°02'815.5
2017-Dec-08 02:30N 44°33' W 125°03'815.4
2017-Dec-08 02:00N 44°40' W 125°04'815.4
2017-Dec-08 01:30N 44°48' W 125°05'815.2
2017-Dec-08 01:00N 44°56' W 125°06'714.7
2017-Dec-08 00:30N 45°03' W 125°07'815.2
2017-Dec-08 00:00N 45°10' W 125°06'815.3
2017-Dec-07 23:31N 45°18' W 125°06'815.1
2017-Dec-07 23:00N 45°26' W 125°07'815.2
2017-Dec-07 22:30N 45°33' W 125°07'815.2
2017-Dec-07 22:00N 45°41' W 125°08'815.3
2017-Dec-07 21:30N 45°48' W 125°08'715.0
2017-Dec-07 21:00N 45°56' W 125°09'815.1
2017-Dec-07 20:31N 46°03' W 125°09'815.1
2017-Dec-07 20:00N 46°11' W 125°10'815.3
2017-Dec-07 19:31N 46°19' W 125°11'815.2
2017-Dec-07 19:00N 46°26' W 125°11'815.1
2017-Dec-07 18:31N 46°34' W 125°12'815.2
2017-Dec-07 18:01N 46°41' W 125°12'1314.1
2017-Dec-07 17:06N 46°54' W 125°13'113.5
2017-Dec-07 17:00N 46°55' W 125°13'713.4
2017-Dec-07 16:30N 47°02' W 125°14'713.1
2017-Dec-07 16:00N 47°09' W 125°15'612.9
2017-Dec-07 15:30N 47°15' W 125°15'713.2
2017-Dec-07 15:00N 47°22' W 125°16'713.7
2017-Dec-07 14:30N 47°29' W 125°16'714.7
2017-Dec-07 14:00N 47°36' W 125°17'914.7
2017-Dec-07 13:24N 47°45' W 125°17'614.3
2017-Dec-07 13:00N 47°50' W 125°18'713.8
2017-Dec-07 12:30N 47°57' W 125°17'814.3
2017-Dec-07 11:58N 48°05' W 125°14'714.2
2017-Dec-07 11:30N 48°11' W 125°12'713.6
2017-Dec-07 11:00N 48°18' W 125°10'713.5
2017-Dec-07 10:30N 48°24' W 125°08'714.6
2017-Dec-07 10:00N 48°30' W 125°02'714.8
2017-Dec-07 09:31N 48°31' W 124°51'815.8
2017-Dec-07 09:01N 48°29' W 124°39'816.4
2017-Dec-07 08:31N 48°26' W 124°28'816.6
2017-Dec-07 08:00N 48°23' W 124°16'816.7
2017-Dec-07 07:31N 48°20' W 124°05'816.8
2017-Dec-07 07:01N 48°17' W 123°53'918.9
2017-Dec-07 06:31N 48°16' W 123°39'917.1
2017-Dec-07 06:01N 48°13' W 123°27'611.9
2017-Dec-07 05:31N 48°09' W 123°20'1121.0
2017-Dec-07 05:01N 48°13' W 123°05'1121.6
2017-Dec-07 04:31N 48°12' W 122°49'1120.7
2017-Dec-07 03:58N 48°03' W 122°38'1020.5
2017-Dec-07 03:30N 47°56' W 122°29'1019.8
2017-Dec-07 03:01N 47°46' W 122°26'917.3
2017-Dec-07 02:31N 47°37' W 122°27'5 9.7
2017-Dec-07 02:00N 47°36' W 122°21'0 0.1
2017-Dec-07 01:30N 47°36' W 122°21'0 0.0
2017-Dec-07 00:59N 47°36' W 122°21'0 0.0
2017-Dec-07 00:29N 47°36' W 122°21'0 0.0
2017-Dec-06 23:59N 47°36' W 122°21'0 0.0
2017-Dec-06 23:30N 47°36' W 122°21'0 0.0
2017-Dec-06 22:59N 47°36' W 122°21'0 0.0
2017-Dec-06 22:30N 47°36' W 122°21'0 0.0
2017-Dec-06 22:00N 47°36' W 122°21'0 0.0
2017-Dec-06 21:30N 47°36' W 122°21'0 0.0
2017-Dec-06 20:59N 47°36' W 122°21'  
2017-Dec-04 10:23N 49°01' W 123°09'0 0.0
2017-Dec-04 09:59N 49°01' W 123°09'0 0.0
2017-Dec-04 09:29N 49°01' W 123°09'0 0.0
2017-Dec-04 08:59N 49°01' W 123°09'0 0.0
2017-Dec-04 08:29N 49°01' W 123°09'0 0.0
2017-Dec-04 07:59N 49°01' W 123°09'0 0.0
2017-Dec-04 07:29N 49°01' W 123°09'0 0.0
2017-Dec-04 07:00N 49°01' W 123°09'0 0.8
2017-Dec-04 06:30N 49°01' W 123°09'3 6.3
2017-Dec-04 06:01N 48°58' W 123°10'714.6
2017-Dec-04 05:30N 48°52' W 123°03'713.5
2017-Dec-04 05:00N 48°45' W 123°04'816.5
2017-Dec-04 04:30N 48°42' W 123°15'816.1
2017-Dec-04 04:00N 48°34' W 123°12'816.3
2017-Dec-04 03:30N 48°26' W 123°10'815.7
2017-Dec-04 03:00N 48°22' W 123°20'611.9
2017-Dec-04 02:31N 48°17' W 123°26'713.1
2017-Dec-04 02:00N 48°13' W 123°34'613.1
2017-Dec-04 01:30N 48°13' W 123°43'713.7
2017-Dec-04 01:00N 48°13' W 123°54'713.5
2017-Dec-04 00:30N 48°16' W 124°03'714.2
2017-Dec-04 00:00N 48°19' W 124°13'714.5
2017-Dec-03 23:30N 48°22' W 124°23'816.1
2017-Dec-03 23:00N 48°25' W 124°34'917.1
2017-Dec-03 22:31N 48°29' W 124°46'816.9
2017-Dec-03 22:00N 48°28' W 124°58'714.6
2017-Dec-03 21:30N 48°22' W 125°05'816.9
2017-Dec-03 21:01N 48°14' W 125°08'816.7
2017-Dec-03 20:30N 48°06' W 125°11'1116.7
2017-Dec-03 19:51N 47°56' W 125°16'6117.4
2017-Dec-03 16:19N 46°54' W 125°14'517.9
2017-Dec-03 16:00N 46°49' W 125°13'917.8
2017-Dec-03 15:30N 46°40' W 125°13'917.5
2017-Dec-03 15:01N 46°31' W 125°12'917.3
2017-Dec-03 14:30N 46°22' W 125°11'917.4
2017-Dec-03 14:01N 46°14' W 125°10'917.3
2017-Dec-03 13:31N 46°05' W 125°10'917.4
2017-Dec-03 13:00N 45°56' W 125°09'917.5
2017-Dec-03 12:31N 45°48' W 125°09'917.6
2017-Dec-03 12:01N 45°39' W 125°08'918.1
2017-Dec-03 11:31N 45°30' W 125°07'918.2
2017-Dec-03 11:01N 45°21' W 125°07'918.7
2017-Dec-03 10:30N 45°11' W 125°06'  

Dump ship's entire track history